Other Surface Observations
Issued by NWS Great Falls, MT

Home | Current Version | Previous Version | Text Only | Print | Product List | Glossary On
Versions: 1 2 3 4 5 6 7 8 9 10 11 12 13 14 15 16 17 18 19 20 21 22 23 24 25 26 27 28 29 30 31 32 33 34 35 36 37 38 39 40 41 42 43 44 45 46 47 48 49 50
000
SXUS55 KTFX 241423
OSOTFX
AREA AWOS OBSERVATIONS
NATIONAL WEATHER SERVICE GREAT FALLS MT
0720 AM MST MON NOV 24 2014

METAR KPWD 241415Z AUTO 30003KT 9SM M10/M11 A2990 RMK PLENTYWOOD
METAR KPO1 241415Z AUTO 8SM M11/M13 A2992 RMK POPLAR
METAR K1S3 241415Z AUTO 27009KT 10SM 01/M02 A2989 RMK FORSYTH
METAR KS71 241415Z AUTO 27009KT 10SM M02/M05 A2998 RMK CHINOOK
METAR K6S0 241415Z AUTO 25021G29KT 9SM 01/M08 A3003 RMK BIG TIMBER
METAR K79S 241415Z AUTO 15003KT 10SM M01/M07 A3004 RMK FORT BENTON
METAR KEKS 241415Z AUTO 32008G16KT 10SM M01/M11 A3018 RMK ENNIS
METAR K38S 241415Z AUTO 30010KT 10SM 00/M08 A3018 RMK DEER LODGE
METAR K6S5 241415Z AUTO 16003KT 10SM 01/M04 A3024 RMK HAMILTON
METAR KS59 241415Z AUTO 00000KT 10SM M06/M07 A3024 RMK LIBBY
METAR K88M 241415Z AUTO 00000KT 10SM M04/M06 A3018 RMK EUREKA



USA.gov is the U.S. government's official web portal to all federal, state and local government web resources and services.